createdAt,value
2023-05-11T00:01:37.249Z,12.90
2023-05-11T00:04:38.983Z,13.00
2023-05-11T00:07:40.654Z,13.00
2023-05-11T00:10:42.185Z,13.40
2023-05-11T00:13:43.841Z,13.50
2023-05-11T00:16:45.410Z,13.20
2023-05-11T00:19:47.075Z,13.20
2023-05-11T00:22:49.882Z,13.90
2023-05-11T00:25:51.561Z,14.10
2023-05-11T00:28:53.237Z,13.50
2023-05-11T00:31:54.895Z,13.30
2023-05-11T00:34:56.517Z,13.20
2023-05-11T00:37:58.479Z,13.40
2023-05-11T00:41:00.063Z,13.30
2023-05-11T00:44:01.658Z,13.30
2023-05-11T00:47:03.832Z,13.30
2023-05-11T00:50:06.367Z,13.70
2023-05-11T00:53:08.262Z,13.00
2023-05-11T00:56:10.033Z,13.20
2023-05-11T00:59:13.442Z,13.10
2023-05-11T01:02:15.132Z,13.30
2023-05-11T01:05:16.758Z,12.80
2023-05-11T01:08:24.666Z,12.70
2023-05-11T01:11:49.004Z,12.80
2023-05-11T01:15:11.707Z,13.10
2023-05-11T01:18:39.759Z,13.10
2023-05-11T01:21:41.855Z,12.90
2023-05-11T01:24:49.714Z,13.00
2023-05-11T01:28:15.694Z,13.30
2023-05-11T01:31:19.173Z,13.10
2023-05-11T01:34:25.334Z,13.20
2023-05-11T01:37:27.942Z,13.10
2023-05-11T01:40:33.786Z,13.00
2023-05-11T01:43:37.630Z,13.20
2023-05-11T01:46:39.909Z,15.00
2023-05-11T01:49:43.990Z,13.20
2023-05-11T01:52:47.356Z,13.40
2023-05-11T01:55:51.163Z,15.20
2023-05-11T01:58:55.469Z,15.00
2023-05-11T02:01:58.664Z,14.90
2023-05-11T02:05:01.814Z,13.30
2023-05-11T02:08:05.365Z,13.00
2023-05-11T02:11:08.057Z,13.20
2023-05-11T02:14:11.640Z,13.40
2023-05-11T02:17:16.282Z,13.30
2023-05-11T02:20:19.484Z,13.20
2023-05-11T02:23:22.343Z,13.20
2023-05-11T02:26:23.914Z,13.50
2023-05-11T02:29:26.214Z,14.70
2023-05-11T02:32:30.492Z,15.20
2023-05-11T02:35:37.583Z,13.30
2023-05-11T02:38:41.457Z,13.10
2023-05-11T02:41:45.960Z,13.20
2023-05-11T02:45:00.019Z,13.60
2023-05-11T02:48:09.241Z,13.20
2023-05-11T02:51:12.696Z,13.10
2023-05-11T02:54:15.969Z,13.00
2023-05-11T02:57:18.176Z,14.70
2023-05-11T03:00:20.202Z,13.10
2023-05-11T03:03:22.164Z,13.10
2023-05-11T03:06:23.797Z,13.10
2023-05-11T03:09:25.518Z,13.10
2023-05-11T03:12:31.435Z,13.00
2023-05-11T03:15:33.832Z,13.00
2023-05-11T03:18:36.745Z,13.20
2023-05-11T03:21:39.828Z,12.60
2023-05-11T03:24:42.278Z,13.10
2023-05-11T03:27:45.309Z,12.90
2023-05-11T03:30:49.298Z,12.50
2023-05-11T03:33:50.844Z,12.40
2023-05-11T03:36:52.852Z,12.60
2023-05-11T03:39:57.822Z,12.50
2023-05-11T03:43:03.270Z,12.60
2023-05-11T03:46:05.476Z,12.60
2023-05-11T03:49:07.889Z,12.80
2023-05-11T03:52:09.865Z,13.20
2023-05-11T03:55:11.792Z,13.20
2023-05-11T03:58:13.461Z,13.20
2023-05-11T04:01:15.380Z,12.90
2023-05-11T04:04:17.033Z,12.80
2023-05-11T04:07:19.438Z,13.60
2023-05-11T04:10:22.395Z,13.00
2023-05-11T04:13:24.035Z,12.80
2023-05-11T04:16:25.894Z,13.20
2023-05-11T04:19:27.745Z,13.10
2023-05-11T04:22:29.326Z,13.10
2023-05-11T04:25:31.072Z,13.00
2023-05-11T04:28:32.643Z,12.90
2023-05-11T04:31:34.468Z,13.10
2023-05-11T04:34:36.146Z,12.90
2023-05-11T04:37:38.254Z,13.00
2023-05-11T04:40:39.811Z,12.90
2023-05-11T04:43:41.351Z,13.00
2023-05-11T04:46:42.910Z,13.10
2023-05-11T04:49:44.586Z,13.60
2023-05-11T04:52:46.180Z,13.20
2023-05-11T04:55:47.791Z,14.40
2023-05-11T04:58:49.364Z,13.50
2023-05-11T05:01:50.941Z,13.50
2023-05-11T05:04:52.501Z,13.50
2023-05-11T05:07:54.268Z,13.50
2023-05-11T05:10:55.830Z,13.30
2023-05-11T05:13:57.376Z,13.40
2023-05-11T05:17:01.603Z,13.70
2023-05-11T05:20:04.597Z,13.60
2023-05-11T05:23:06.167Z,13.50
2023-05-11T05:26:07.779Z,13.50
2023-05-11T05:29:09.311Z,13.50
2023-05-11T05:32:10.846Z,13.30
2023-05-11T05:35:12.399Z,13.50
2023-05-11T05:38:14.048Z,13.70
2023-05-11T05:41:16.124Z,13.40
2023-05-11T05:44:17.713Z,13.20
2023-05-11T05:47:19.262Z,13.30
2023-05-11T05:50:20.861Z,13.50
2023-05-11T05:53:22.453Z,13.70
2023-05-11T05:56:24.054Z,15.60
2023-05-11T05:59:25.708Z,13.50
2023-05-11T06:02:27.383Z,13.90
2023-05-11T06:05:29.172Z,14.10
2023-05-11T06:08:30.757Z,13.90
2023-05-11T06:11:32.600Z,14.30
2023-05-11T06:14:34.205Z,14.00
2023-05-11T06:17:35.842Z,14.10
2023-05-11T06:20:37.397Z,13.80
2023-05-11T06:23:39.031Z,13.90
2023-05-11T06:26:41.068Z,14.00
2023-05-11T06:29:42.658Z,14.30
2023-05-11T06:32:44.282Z,14.70
2023-05-11T06:35:45.878Z,14.80
2023-05-11T06:38:47.480Z,16.70
2023-05-11T06:41:52.305Z,16.20
2023-05-11T06:44:54.557Z,15.80
2023-05-11T06:47:56.157Z,14.30
2023-05-11T06:50:57.871Z,14.60
2023-05-11T06:53:59.650Z,15.20
2023-05-11T06:57:03.551Z,14.60
2023-05-11T07:00:05.994Z,16.60
2023-05-11T07:03:07.839Z,14.60
2023-05-11T07:06:09.457Z,14.70
2023-05-11T07:09:11.084Z,14.70
2023-05-11T07:12:12.622Z,14.60
2023-05-11T07:15:14.194Z,14.50
2023-05-11T07:18:15.920Z,16.00
2023-05-11T07:21:17.627Z,14.50
2023-05-11T07:24:19.165Z,14.20
2023-05-11T07:27:20.717Z,14.40
2023-05-11T07:30:22.809Z,14.40
2023-05-11T07:33:24.688Z,15.10
2023-05-11T07:36:26.272Z,15.30
2023-05-11T07:39:27.806Z,15.80
2023-05-11T07:42:29.522Z,16.20
2023-05-11T07:45:31.393Z,15.70
2023-05-11T07:48:32.952Z,16.00
2023-05-11T07:51:34.897Z,15.50
2023-05-11T07:54:36.473Z,15.80
2023-05-11T07:57:38.086Z,15.70
2023-05-11T08:00:39.760Z,15.80
2023-05-11T08:03:41.837Z,15.70
2023-05-11T08:06:43.507Z,15.60
2023-05-11T08:09:45.110Z,15.90
2023-05-11T08:12:46.977Z,15.80
2023-05-11T08:15:48.913Z,16.10
2023-05-11T08:18:50.597Z,16.40
2023-05-11T08:21:53.019Z,16.60
2023-05-11T08:24:57.349Z,16.30
2023-05-11T08:27:58.946Z,16.40
2023-05-11T08:31:00.829Z,16.60
2023-05-11T08:34:02.987Z,17.30
2023-05-11T08:37:04.671Z,16.50
2023-05-11T08:40:06.672Z,16.60
2023-05-11T08:43:08.618Z,16.30
2023-05-11T08:46:11.641Z,16.60
2023-05-11T08:49:14.149Z,16.60
2023-05-11T08:52:18.081Z,16.60
2023-05-11T08:55:21.593Z,17.60
2023-05-11T08:58:23.299Z,16.90
2023-05-11T09:01:28.519Z,18.40
2023-05-11T09:04:31.499Z,17.50
2023-05-11T09:07:37.278Z,17.90
2023-05-11T09:10:39.158Z,17.20
2023-05-11T09:13:41.392Z,17.50
2023-05-11T09:16:42.987Z,18.80
2023-05-11T09:20:05.980Z,17.70
2023-05-11T09:23:07.551Z,17.40
2023-05-11T09:26:17.393Z,19.20
2023-05-11T09:29:21.131Z,17.60
2023-05-11T09:32:23.007Z,17.70
2023-05-11T09:35:28.997Z,17.40
2023-05-11T09:38:30.618Z,17.50
2023-05-11T09:41:35.774Z,19.20
2023-05-11T09:44:37.798Z,19.00
2023-05-11T09:47:42.863Z,17.60
2023-05-11T09:50:46.099Z,17.60
2023-05-11T09:53:48.081Z,17.60
2023-05-11T09:56:56.590Z,17.40
2023-05-11T09:59:59.730Z,17.40
2023-05-11T10:03:05.583Z,17.50
2023-05-11T10:06:07.517Z,17.40
2023-05-11T10:09:10.294Z,17.60
2023-05-11T10:12:11.910Z,17.50
2023-05-11T10:15:14.674Z,17.70
2023-05-11T10:18:18.743Z,17.10
2023-05-11T10:21:22.321Z,17.20
2023-05-11T10:24:24.849Z,17.70
2023-05-11T10:27:27.063Z,17.00
2023-05-11T10:30:29.569Z,16.50
2023-05-11T10:33:32.352Z,16.90
2023-05-11T10:36:34.469Z,16.70
2023-05-11T10:39:42.612Z,16.60
2023-05-11T10:42:47.288Z,16.20
2023-05-11T10:46:18.822Z,16.60
2023-05-11T10:49:37.308Z,16.40
2023-05-11T10:52:48.382Z,16.30
2023-05-11T10:56:28.583Z,16.10
2023-05-11T11:00:15.567Z,16.00
2023-05-11T11:03:17.393Z,15.90
2023-05-11T11:06:23.517Z,16.40
2023-05-11T11:09:25.247Z,16.30
2023-05-11T11:12:29.348Z,16.20
2023-05-11T11:15:55.931Z,15.80
2023-05-11T11:19:32.893Z,16.10
2023-05-11T11:22:34.561Z,16.40
2023-05-11T11:25:56.415Z,16.10
2023-05-11T11:29:00.455Z,15.80
2023-05-11T11:32:20.119Z,15.60
2023-05-11T11:35:40.180Z,16.00
2023-05-11T11:38:59.503Z,15.90
2023-05-11T11:42:05.660Z,15.60
2023-05-11T11:45:29.825Z,16.10
2023-05-11T11:48:36.265Z,14.30
2023-05-11T11:51:40.037Z,17.40
2023-05-11T11:54:44.436Z,16.00
2023-05-11T11:57:49.280Z,16.20
2023-05-11T12:00:52.291Z,16.50
2023-05-11T12:04:09.667Z,16.50
2023-05-11T12:07:12.560Z,16.40
2023-05-11T12:10:15.388Z,16.90
2023-05-11T12:13:19.401Z,16.50
2023-05-11T12:16:21.114Z,17.60
2023-05-11T12:19:24.521Z,16.60
2023-05-11T12:22:26.326Z,16.80
2023-05-11T12:25:27.938Z,18.30
2023-05-11T12:28:29.529Z,17.20
2023-05-11T12:31:38.341Z,17.10
2023-05-11T12:34:40.421Z,17.80
2023-05-11T12:41:06.545Z,17.60
2023-05-11T12:44:17.553Z,17.70
2023-05-11T12:47:26.174Z,18.20
2023-05-11T12:50:27.879Z,17.90
2023-05-11T12:53:36.053Z,20.50
2023-05-11T12:56:50.155Z,18.00
2023-05-11T13:00:07.984Z,19.10
2023-05-11T13:03:10.483Z,18.10
2023-05-11T13:06:13.339Z,18.00
2023-05-11T13:09:28.135Z,18.40
2023-05-11T13:12:32.200Z,18.30
2023-05-11T13:15:34.415Z,18.50
2023-05-11T13:18:36.171Z,20.20
2023-05-11T13:21:38.172Z,19.40
2023-05-11T13:24:39.761Z,18.50
2023-05-11T13:27:41.649Z,18.90
2023-05-11T13:30:43.840Z,19.90
2023-05-11T13:33:52.561Z,18.50
2023-05-11T13:36:54.157Z,18.50
2023-05-11T13:39:55.940Z,18.30
2023-05-11T13:42:57.668Z,19.30
2023-05-11T13:45:59.294Z,18.10
2023-05-11T13:49:00.936Z,17.80
2023-05-11T13:52:02.612Z,19.30
2023-05-11T13:55:04.753Z,17.80
2023-05-11T13:58:06.333Z,17.70
2023-05-11T14:01:08.719Z,17.90
2023-05-11T14:04:10.760Z,18.80
2023-05-11T14:07:12.363Z,18.10
2023-05-11T14:10:14.058Z,17.60
2023-05-11T14:13:15.661Z,18.00
2023-05-11T14:16:21.021Z,18.00
2023-05-11T14:19:22.588Z,19.70
2023-05-11T14:22:24.369Z,17.80
2023-05-11T14:25:26.090Z,17.80
2023-05-11T14:28:27.832Z,17.80
2023-05-11T14:31:29.557Z,17.70
2023-05-11T14:34:31.408Z,17.60
2023-05-11T14:37:32.959Z,17.40
2023-05-11T14:40:34.593Z,17.60
2023-05-11T14:43:36.482Z,17.40
2023-05-11T14:46:38.157Z,17.60
2023-05-11T14:49:39.726Z,17.40
2023-05-11T14:52:41.394Z,17.30
2023-05-11T14:55:43.131Z,17.60
2023-05-11T14:58:44.791Z,17.40
2023-05-11T15:01:46.912Z,17.30
2023-05-11T15:04:48.512Z,17.30
2023-05-11T15:07:50.255Z,17.10
2023-05-11T15:10:51.871Z,17.40
2023-05-11T15:13:53.519Z,17.30
2023-05-11T15:16:58.714Z,18.40
2023-05-11T15:20:00.409Z,17.50
2023-05-11T15:23:03.081Z,17.10
2023-05-11T15:26:04.682Z,17.00
2023-05-11T15:29:06.551Z,19.10
2023-05-11T15:32:08.289Z,17.00
2023-05-11T15:35:09.963Z,17.10
2023-05-11T15:38:12.145Z,16.70
2023-05-11T15:41:13.752Z,17.20
2023-05-11T15:44:18.370Z,17.20
2023-05-11T15:47:20.221Z,16.80
2023-05-11T15:50:22.392Z,16.90
2023-05-11T15:53:24.151Z,16.80
2023-05-11T15:56:26.340Z,17.00
2023-05-11T15:59:27.950Z,16.90
2023-05-11T16:02:29.556Z,17.00
2023-05-11T16:05:32.544Z,16.90
2023-05-11T16:08:34.473Z,16.60
2023-05-11T16:11:36.773Z,17.20
2023-05-11T16:14:38.327Z,16.80
2023-05-11T16:17:40.016Z,18.10
2023-05-11T16:20:41.723Z,16.60
2023-05-11T16:23:43.284Z,18.40
2023-05-11T16:26:45.223Z,16.80
2023-05-11T16:29:46.837Z,16.70
2023-05-11T16:32:50.397Z,17.40
2023-05-11T16:35:52.930Z,17.00
2023-05-11T16:38:54.558Z,16.70
2023-05-11T16:41:58.147Z,16.80
2023-05-11T16:44:59.719Z,16.50
2023-05-11T16:48:01.455Z,16.50
2023-05-11T16:51:03.510Z,16.30
2023-05-11T16:54:05.134Z,16.40
2023-05-11T16:57:06.754Z,16.30
2023-05-11T17:00:09.882Z,16.70
2023-05-11T17:03:11.616Z,16.70
2023-05-11T17:06:20.764Z,16.60
2023-05-11T17:09:22.580Z,16.30
2023-05-11T17:12:24.399Z,16.10
2023-05-11T17:15:26.627Z,16.40
2023-05-11T17:18:28.296Z,16.20
2023-05-11T17:21:30.804Z,16.10
2023-05-11T17:24:32.837Z,16.10
2023-05-11T17:27:36.608Z,17.30
2023-05-11T17:30:48.097Z,15.80
2023-05-11T17:33:50.577Z,15.90
2023-05-11T17:36:52.277Z,17.10
2023-05-11T17:39:54.059Z,16.00
2023-05-11T17:42:55.605Z,17.20
2023-05-11T17:45:57.236Z,16.00
2023-05-11T17:48:58.881Z,15.70
2023-05-11T17:52:01.007Z,16.00
2023-05-11T17:55:03.789Z,16.50
2023-05-11T17:58:05.562Z,15.70
2023-05-11T18:01:08.771Z,16.00
2023-05-11T18:04:10.849Z,15.70
2023-05-11T18:07:12.599Z,15.50
2023-05-11T18:10:14.213Z,15.80
2023-05-11T18:13:17.438Z,15.30
2023-05-11T18:16:19.644Z,15.00
2023-05-11T18:19:21.220Z,15.50
2023-05-11T18:22:23.099Z,15.00
2023-05-11T18:25:24.861Z,15.20
2023-05-11T18:28:26.535Z,15.10
2023-05-11T18:31:29.510Z,15.10
2023-05-11T18:34:34.433Z,15.20
2023-05-11T18:37:36.566Z,15.50
2023-05-11T18:40:38.345Z,15.20
2023-05-11T18:43:39.923Z,14.70
2023-05-11T18:46:41.644Z,14.80
2023-05-11T18:49:43.468Z,14.80
2023-05-11T18:52:44.993Z,16.30
2023-05-11T18:55:53.311Z,15.20
2023-05-11T18:58:55.429Z,14.70
2023-05-11T19:01:57.474Z,14.70
2023-05-11T19:04:59.125Z,14.70
2023-05-11T19:08:00.722Z,15.00
2023-05-11T19:11:10.717Z,13.10
2023-05-11T19:14:14.397Z,15.60
2023-05-11T19:17:16.054Z,14.90
2023-05-11T19:20:17.872Z,14.50
2023-05-11T19:23:20.023Z,14.90
2023-05-11T19:26:21.612Z,15.00
2023-05-11T19:29:23.891Z,14.80
2023-05-11T19:32:25.596Z,14.60
2023-05-11T19:35:28.092Z,14.60
2023-05-11T19:38:29.810Z,14.90
2023-05-11T19:41:31.890Z,14.80
2023-05-11T19:44:34.490Z,14.80
2023-05-11T19:47:36.671Z,14.70
2023-05-11T19:50:38.876Z,14.90
2023-05-11T19:53:40.444Z,16.60
2023-05-11T19:56:42.088Z,14.90
2023-05-11T19:59:44.607Z,14.90
2023-05-11T20:02:46.436Z,14.70
2023-05-11T20:05:48.247Z,14.80
2023-05-11T20:08:51.468Z,16.20
2023-05-11T20:11:53.079Z,15.10
2023-05-11T20:14:54.619Z,14.80
2023-05-11T20:17:56.235Z,14.50
2023-05-11T20:20:57.824Z,14.80
2023-05-11T20:23:59.329Z,15.60
2023-05-11T20:27:01.423Z,14.70
2023-05-11T20:30:03.194Z,14.60
2023-05-11T20:36:09.652Z,14.50
2023-05-11T20:39:11.374Z,14.20
2023-05-11T20:42:13.069Z,14.30
2023-05-11T20:45:15.386Z,14.00
2023-05-11T20:48:21.267Z,14.00
2023-05-11T20:51:30.364Z,14.10
2023-05-11T20:54:33.787Z,13.70
2023-05-11T20:57:35.409Z,15.60
2023-05-11T21:00:37.079Z,13.60
2023-05-11T21:03:39.116Z,14.00
2023-05-11T21:06:41.319Z,13.60
2023-05-11T21:09:44.395Z,13.40
2023-05-11T21:12:45.981Z,13.70
2023-05-11T21:15:47.664Z,13.70
2023-05-11T21:18:49.458Z,13.50
2023-05-11T21:21:51.185Z,13.80
2023-05-11T21:24:52.905Z,13.80
2023-05-11T21:27:54.486Z,13.70
2023-05-11T21:30:57.810Z,13.70
2023-05-11T21:33:59.431Z,13.70
2023-05-11T21:37:02.414Z,13.80
2023-05-11T21:40:04.430Z,13.40
2023-05-11T21:43:07.656Z,13.60
2023-05-11T21:46:10.924Z,13.20
2023-05-11T21:49:13.499Z,12.20
2023-05-11T21:52:15.067Z,13.50
2023-05-11T21:55:16.728Z,13.70
2023-05-11T21:58:18.325Z,13.50
2023-05-11T22:01:19.923Z,13.50
2023-05-11T22:04:21.607Z,13.70
2023-05-11T22:07:23.315Z,13.70
2023-05-11T22:10:24.947Z,13.40
2023-05-11T22:13:26.703Z,15.60
2023-05-11T22:16:28.423Z,13.70
2023-05-11T22:19:30.295Z,13.90
2023-05-11T22:22:32.222Z,13.90
2023-05-11T22:25:33.821Z,13.80
2023-05-11T22:28:38.761Z,13.70
2023-05-11T22:31:40.436Z,13.60
2023-05-11T22:34:42.235Z,13.70
2023-05-11T22:37:43.914Z,13.70
2023-05-11T22:40:45.577Z,13.50
2023-05-11T22:43:47.817Z,13.70
2023-05-11T22:46:50.279Z,13.30
2023-05-11T22:49:51.957Z,13.40
2023-05-11T22:52:54.205Z,13.50
2023-05-11T22:55:55.794Z,13.40
2023-05-11T22:59:00.528Z,13.70
2023-05-11T23:02:04.019Z,13.50
2023-05-11T23:05:06.080Z,13.40
2023-05-11T23:08:07.975Z,13.20
2023-05-11T23:11:09.794Z,13.30
2023-05-11T23:14:11.334Z,13.40
2023-05-11T23:17:13.346Z,13.80
2023-05-11T23:20:15.086Z,13.20
2023-05-11T23:23:17.467Z,13.40
2023-05-11T23:26:19.016Z,13.50
2023-05-11T23:29:20.757Z,13.40
2023-05-11T23:32:22.398Z,13.20
2023-05-11T23:35:23.939Z,13.50
2023-05-11T23:38:27.704Z,13.40
2023-05-11T23:41:29.326Z,14.20
2023-05-11T23:44:31.399Z,13.40
2023-05-11T23:47:33.339Z,12.90
2023-05-11T23:50:35.167Z,14.20
2023-05-11T23:53:37.975Z,13.40
2023-05-11T23:56:39.749Z,13.10
2023-05-11T23:59:41.840Z,13.10
